Time;durP1;ratioP1;P1;durP2;ratioP2;P2;SDS_P1;SDS_P2;PMS_P1;PMS_P2;Temp;Humidity;BMP_temperature;BMP_pressure;BME280_temperature;BME280_humidity;BME280_pressure;Samples;Min_cycle;Max_cycle;Signal;HPM_P1;HPM_P2
2023/05/08 00:01:47;;;;;;;9.00;2.70;;;18.80;90.10;;;;;;4988652;28;20033;-60
2023/05/08 00:04:12;;;;;;;7.20;2.30;;;18.70;90.00;;;;;;4987428;28;20027;-60
2023/05/08 00:06:38;;;;;;;9.60;2.67;;;18.70;90.00;;;;;;4986952;28;20035;-60
2023/05/08 00:09:03;;;;;;;10.13;2.53;;;18.70;90.00;;;;;;4986623;28;20376;-60
2023/05/08 00:11:29;;;;;;;12.65;3.00;;;18.70;90.10;;;;;;4985662;28;20356;-60
2023/05/08 00:13:54;;;;;;;8.55;2.85;;;18.70;90.10;;;;;;4986357;28;20035;-60
2023/05/08 00:16:20;;;;;;;11.63;2.78;;;18.70;90.10;;;;;;4986358;28;20061;-59
2023/05/08 00:18:46;;;;;;;8.73;2.80;;;18.70;90.10;;;;;;4985972;28;20455;-60
2023/05/08 00:21:11;;;;;;;10.77;2.75;;;18.70;90.10;;;;;;4987871;28;20023;-60
2023/05/08 00:23:37;;;;;;;13.88;2.97;;;18.70;90.10;;;;;;4986821;28;20025;-59
2023/05/08 00:26:03;;;;;;;10.70;3.05;;;18.60;90.00;;;;;;4987324;28;20027;-60
2023/05/08 00:28:28;;;;;;;6.38;2.17;;;18.60;90.10;;;;;;4987363;28;20031;-60
2023/05/08 00:30:54;;;;;;;10.52;2.60;;;18.60;90.10;;;;;;4988230;28;20061;-60
2023/05/08 00:33:19;;;;;;;11.13;2.80;;;18.60;90.10;;;;;;4986060;28;20031;-59
2023/05/08 00:35:45;;;;;;;13.00;2.90;;;18.60;90.10;;;;;;4987015;28;20030;-60
2023/05/08 00:38:11;;;;;;;11.63;2.53;;;18.60;90.10;;;;;;4985979;28;20041;-58
2023/05/08 00:40:36;;;;;;;6.10;2.10;;;18.60;90.10;;;;;;4987298;28;20038;-60
2023/05/08 00:43:02;;;;;;;10.10;2.42;;;18.60;90.10;;;;;;4986630;28;20033;-60
2023/05/08 00:45:31;;;;;;;9.15;2.92;;;18.60;90.10;;;;;;4986450;28;20031;-59
2023/05/08 00:47:57;;;;;;;7.90;2.25;;;18.60;90.10;;;;;;4988123;28;20082;-60
2023/05/08 00:50:22;;;;;;;8.25;2.50;;;18.50;90.10;;;;;;4986282;28;20031;-59
2023/05/08 00:52:48;;;;;;;5.57;2.35;;;18.50;90.10;;;;;;4987718;28;20038;-60
2023/05/08 00:55:14;;;;;;;7.00;2.40;;;18.50;90.20;;;;;;5002554;28;20034;-60
2023/05/08 00:57:39;;;;;;;9.27;2.00;;;18.50;90.20;;;;;;4986125;28;20054;-59
2023/05/08 01:00:06;;;;;;;6.65;2.13;;;18.50;90.20;;;;;;4985419;28;20029;-60
2023/05/08 01:02:31;;;;;;;6.70;2.33;;;18.50;90.20;;;;;;4986903;28;20133;-60
2023/05/08 01:04:57;;;;;;;8.63;2.45;;;18.50;90.20;;;;;;4985777;28;20031;-60
2023/05/08 01:07:23;;;;;;;9.02;1.95;;;18.50;90.20;;;;;;4986122;28;20073;-60
2023/05/08 01:09:48;;;;;;;7.18;1.90;;;18.40;90.20;;;;;;4984483;28;20034;-60
2023/05/08 01:12:23;;;;;;;5.88;1.90;;;18.40;90.20;;;;;;4984554;28;20050;-60
2023/05/08 01:15:07;;;;;;;10.45;2.35;;;18.40;90.20;;;;;;4987126;28;20051;-60
2023/05/08 01:18:26;;;;;;;6.60;2.00;;;18.40;90.20;;;;;;4985627;28;20031;-60
2023/05/08 01:21:36;;;;;;;5.85;2.10;;;18.40;90.30;;;;;;4962276;28;20414;-60
2023/05/08 01:24:23;;;;;;;5.18;2.30;;;18.40;90.20;;;;;;4981687;28;20055;-60
2023/05/08 01:27:11;;;;;;;8.70;2.33;;;18.40;90.20;;;;;;4985783;28;20066;-60
2023/05/08 01:30:00;;;;;;;4.55;2.03;;;18.40;90.30;;;;;;4985088;28;20232;-59
2023/05/08 01:32:31;;;;;;;12.10;2.17;;;18.30;90.30;;;;;;4985365;28;20042;-59
2023/05/08 01:35:28;;;;;;;6.60;2.03;;;18.30;90.30;;;;;;4985301;28;20035;-60
2023/05/08 01:38:13;;;;;;;5.63;1.90;;;18.30;90.30;;;;;;4968602;28;20030;-60
2023/05/08 01:41:01;;;;;;;7.53;2.05;;;18.30;90.30;;;;;;4985477;28;20085;-60
2023/05/08 01:43:31;;;;;;;6.22;1.90;;;18.30;90.30;;;;;;4985651;28;20034;-60
2023/05/08 01:45:58;;;;;;;4.43;1.88;;;18.30;90.30;;;;;;4985186;28;20031;-60
2023/05/08 01:48:31;;;;;;;4.90;1.70;;;18.30;90.30;;;;;;4969387;28;20033;-60
2023/05/08 01:51:04;;;;;;;7.40;2.28;;;18.30;90.30;;;;;;4986421;28;20042;-60
2023/05/08 01:53:35;;;;;;;9.88;1.92;;;18.30;90.30;;;;;;4969192;28;20058;-60
2023/05/08 01:56:06;;;;;;;6.90;2.25;;;18.30;90.30;;;;;;4985446;28;20035;-60
2023/05/08 01:58:31;;;;;;;5.97;2.13;;;18.30;90.30;;;;;;4985030;28;20031;-60
2023/05/08 02:00:57;;;;;;;10.52;2.53;;;18.20;90.30;;;;;;4982929;28;20038;-59
2023/05/08 02:03:22;;;;;;;6.20;1.90;;;18.30;90.40;;;;;;4984354;28;20022;-60
2023/05/08 02:05:49;;;;;;;4.28;2.00;;;18.20;90.30;;;;;;4985160;28;20049;-60
2023/05/08 02:08:14;;;;;;;4.80;1.85;;;18.20;90.40;;;;;;4984856;28;20038;-60
2023/05/08 02:10:41;;;;;;;5.82;1.63;;;18.20;90.40;;;;;;4984227;28;20363;-59
2023/05/08 02:13:07;;;;;;;6.00;2.20;;;18.20;90.40;;;;;;4984698;28;20051;-60
2023/05/08 02:15:35;;;;;;;5.50;1.83;;;18.20;90.40;;;;;;4984597;28;20038;-60
2023/05/08 02:18:02;;;;;;;8.68;2.08;;;18.20;90.40;;;;;;4984079;28;20045;-60
2023/05/08 02:20:27;;;;;;;7.15;2.15;;;18.10;90.40;;;;;;4971982;28;20035;-59
2023/05/08 02:22:53;;;;;;;6.75;1.80;;;18.20;90.40;;;;;;4949642;28;20031;-59
2023/05/08 02:25:19;;;;;;;4.10;1.70;;;18.10;90.40;;;;;;4999902;28;20035;-59
2023/05/08 02:27:45;;;;;;;5.25;1.80;;;18.10;90.40;;;;;;4982858;28;20042;-59
2023/05/08 02:30:15;;;;;;;6.75;1.70;;;18.10;90.40;;;;;;4984493;28;20023;-58
2023/05/08 02:32:45;;;;;;;5.25;1.70;;;18.10;90.40;;;;;;4984174;28;20106;-60
2023/05/08 02:35:12;;;;;;;8.00;1.90;;;18.10;90.40;;;;;;4986272;28;20043;-60
2023/05/08 02:37:38;;;;;;;5.40;1.95;;;18.10;90.40;;;;;;4984365;28;20084;-59
2023/05/08 02:40:04;;;;;;;8.40;2.60;;;18.10;90.40;;;;;;4965507;28;20110;-60
2023/05/08 02:42:29;;;;;;;4.35;1.85;;;18.10;90.50;;;;;;4986591;28;20054;-60
2023/05/08 02:44:55;;;;;;;6.38;2.05;;;18.00;90.50;;;;;;4972600;28;20058;-59
2023/05/08 02:47:22;;;;;;;5.32;1.70;;;18.10;90.50;;;;;;4990092;28;20118;-59
2023/05/08 02:50:05;;;;;;;3.85;1.73;;;18.00;90.50;;;;;;4987482;28;20039;-60
2023/05/08 02:52:41;;;;;;;4.35;1.83;;;18.00;90.50;;;;;;4987809;28;20041;-60
2023/05/08 02:55:28;;;;;;;3.33;1.40;;;18.00;90.50;;;;;;5004362;28;20035;-59
2023/05/08 02:58:17;;;;;;;4.82;1.83;;;18.00;90.50;;;;;;4988480;28;20039;-60
2023/05/08 03:00:57;;;;;;;4.53;1.58;;;18.00;90.60;;;;;;4988203;28;20031;-60
2023/05/08 03:03:26;;;;;;;3.10;1.35;;;18.00;90.50;;;;;;4972073;28;20030;-59
2023/05/08 03:05:53;;;;;;;5.75;2.15;;;18.00;90.60;;;;;;4987406;28;20031;-60
2023/05/08 03:08:28;;;;;;;3.42;1.42;;;17.90;90.60;;;;;;4968413;28;20038;-59
2023/05/08 03:10:55;;;;;;;8.77;1.70;;;18.00;90.50;;;;;;4978935;28;20039;-60
2023/05/08 03:13:21;;;;;;;4.30;1.85;;;17.90;90.50;;;;;;4986663;28;20129;-59
2023/05/08 03:16:03;;;;;;;4.90;1.98;;;17.90;90.50;;;;;;4987987;28;20201;-60
2023/05/08 03:18:34;;;;;;;4.82;1.42;;;17.90;90.60;;;;;;4975467;28;20094;-60
2023/05/08 03:21:00;;;;;;;3.08;1.70;;;17.90;90.60;;;;;;5004182;28;20144;-60
2023/05/08 03:23:29;;;;;;;2.95;1.48;;;17.90;90.60;;;;;;4987565;28;20049;-59
2023/05/08 03:25:56;;;;;;;3.83;1.45;;;17.90;90.60;;;;;;4987357;28;20027;-59
2023/05/08 03:28:22;;;;;;;4.43;1.63;;;17.90;90.60;;;;;;4987979;28;20045;-60
2023/05/08 03:30:48;;;;;;;6.85;1.48;;;17.90;90.60;;;;;;4988715;28;20035;-59
2023/05/08 03:33:13;;;;;;;5.03;1.58;;;17.90;90.60;;;;;;4987831;28;20042;-59
2023/05/08 03:35:39;;;;;;;4.80;1.42;;;17.90;90.60;;;;;;4987196;28;20102;-59
2023/05/08 03:38:05;;;;;;;5.25;1.58;;;17.90;90.60;;;;;;4988169;28;20417;-59
2023/05/08 03:40:35;;;;;;;5.75;1.60;;;17.90;90.60;;;;;;4987858;28;20034;-59
2023/05/08 03:43:01;;;;;;;3.72;1.58;;;17.90;90.60;;;;;;4986902;28;20082;-60
2023/05/08 03:45:26;;;;;;;3.33;1.52;;;17.80;90.90;;;;;;4986017;28;20528;-60
2023/05/08 03:47:52;;;;;;;2.30;1.40;;;17.90;90.70;;;;;;4986117;28;20067;-60
2023/05/08 03:50:18;;;;;;;2.92;1.33;;;17.80;90.70;;;;;;4987440;28;20031;-60
2023/05/08 03:52:43;;;;;;;3.35;1.20;;;17.80;90.70;;;;;;4970628;28;20098;-60
2023/05/08 03:55:09;;;;;;;3.28;1.50;;;17.80;90.70;;;;;;4985250;28;20042;-60
2023/05/08 03:58:10;;;;;;;2.25;1.23;;;17.80;90.70;;;;;;4970842;28;20027;-60
2023/05/08 04:00:40;;;;;;;2.97;1.40;;;17.80;90.70;;;;;;4947236;29;20099;-60
2023/05/08 04:03:44;;;;;;;3.17;1.40;;;17.80;90.70;;;;;;4970108;28;20048;-60
2023/05/08 04:06:36;;;;;;;3.15;1.40;;;17.80;90.70;;;;;;4984617;28;20035;-60
2023/05/08 04:09:17;;;;;;;5.75;1.50;;;17.80;90.80;;;;;;4987338;28;20031;-59
2023/05/08 04:11:45;;;;;;;2.20;1.23;;;17.70;90.70;;;;;;4972031;28;20038;-58
2023/05/08 04:14:13;;;;;;;2.95;1.23;;;17.70;90.80;;;;;;4987112;28;20038;-59
2023/05/08 04:16:39;;;;;;;3.15;1.40;;;17.70;90.80;;;;;;4987355;28;20046;-59
2023/05/08 04:19:10;;;;;;;2.50;1.13;;;17.70;90.80;;;;;;4986101;28;20035;-60
2023/05/08 04:21:36;;;;;;;3.72;1.27;;;17.70;90.80;;;;;;4986247;28;20059;-60
2023/05/08 04:24:01;;;;;;;4.55;1.40;;;17.70;90.80;;;;;;4986096;28;20030;-60
2023/05/08 04:26:27;;;;;;;1.77;1.05;;;17.70;90.80;;;;;;4986014;28;20463;-59
2023/05/08 04:28:52;;;;;;;3.65;1.20;;;17.70;90.80;;;;;;4986986;28;20037;-60
2023/05/08 04:31:18;;;;;;;3.67;1.10;;;17.70;90.80;;;;;;4985958;28;20098;-59
2023/05/08 04:33:43;;;;;;;3.50;1.50;;;17.70;90.80;;;;;;4970664;28;20490;-59
2023/05/08 04:36:12;;;;;;;2.97;1.40;;;17.70;90.80;;;;;;4985541;28;20121;-59
2023/05/08 04:38:39;;;;;;;2.75;1.10;;;17.70;90.80;;;;;;4986549;28;20045;-59
2023/05/08 04:41:05;;;;;;;2.15;1.15;;;17.70;90.80;;;;;;4986726;28;20035;-60
2023/05/08 04:43:30;;;;;;;3.85;1.13;;;17.70;90.80;;;;;;4986696;28;20400;-59
2023/05/08 04:45:56;;;;;;;2.58;1.35;;;17.70;90.80;;;;;;4985981;28;20027;-59
2023/05/08 04:48:22;;;;;;;2.78;1.48;;;17.60;90.80;;;;;;4986286;28;20033;-59
2023/05/08 04:50:47;;;;;;;5.00;1.40;;;17.70;90.80;;;;;;4987662;28;20054;-59
2023/05/08 04:53:13;;;;;;;4.88;1.20;;;17.60;90.80;;;;;;4984744;28;20070;-60
2023/05/08 04:55:38;;;;;;;3.47;1.08;;;17.60;90.80;;;;;;4987220;28;20069;-60
2023/05/08 04:58:04;;;;;;;6.18;1.17;;;17.70;90.80;;;;;;4985974;28;20031;-59
2023/05/08 05:00:29;;;;;;;2.90;1.15;;;17.70;90.80;;;;;;4985648;28;20038;-60
2023/05/08 05:02:55;;;;;;;3.40;1.20;;;17.70;90.80;;;;;;4987354;28;20031;-60
2023/05/08 05:05:20;;;;;;;2.05;1.15;;;17.60;90.80;;;;;;4986387;28;20049;-60
2023/05/08 05:07:46;;;;;;;2.53;1.20;;;17.60;90.80;;;;;;4986809;28;20100;-59
2023/05/08 05:10:11;;;;;;;2.78;1.20;;;17.60;90.80;;;;;;4986475;28;20053;-60
2023/05/08 05:12:37;;;;;;;3.90;1.42;;;17.60;90.80;;;;;;4985977;28;20023;-59
2023/05/08 05:15:03;;;;;;;1.63;0.80;;;17.60;90.80;;;;;;4986041;28;20031;-59
2023/05/08 05:17:30;;;;;;;2.28;1.10;;;17.60;90.90;;;;;;4986706;28;20035;-60
2023/05/08 05:19:56;;;;;;;1.92;0.95;;;17.60;90.90;;;;;;4985884;28;20034;-59
2023/05/08 05:22:21;;;;;;;2.85;1.10;;;17.60;90.90;;;;;;4985847;28;20085;-60
2023/05/08 05:24:47;;;;;;;6.57;1.13;;;17.60;90.90;;;;;;4986659;28;20061;-60
2023/05/08 05:27:12;;;;;;;2.95;1.25;;;17.60;90.90;;;;;;4984394;28;20029;-60
2023/05/08 05:29:38;;;;;;;2.47;0.90;;;17.60;90.90;;;;;;4985355;28;20062;-60
2023/05/08 05:32:06;;;;;;;2.88;1.20;;;17.60;90.90;;;;;;4985692;28;20411;-60
2023/05/08 05:34:31;;;;;;;2.33;0.95;;;17.60;90.90;;;;;;4985290;28;20043;-59
2023/05/08 05:36:57;;;;;;;2.08;1.10;;;17.60;90.90;;;;;;4986122;28;20174;-60
2023/05/08 05:39:22;;;;;;;4.03;1.27;;;17.60;90.90;;;;;;4986307;28;20046;-59
2023/05/08 05:41:48;;;;;;;3.25;1.20;;;17.60;91.00;;;;;;4986221;28;20034;-59
2023/05/08 05:44:13;;;;;;;2.22;0.90;;;17.60;91.00;;;;;;4987005;28;20037;-59
2023/05/08 05:46:39;;;;;;;2.00;1.15;;;17.50;91.00;;;;;;4985183;28;20087;-60
2023/05/08 05:49:04;;;;;;;2.05;0.90;;;17.60;90.90;;;;;;4984746;28;20038;-59
2023/05/08 05:51:30;;;;;;;3.13;1.00;;;17.60;91.00;;;;;;4986394;28;20506;-60
2023/05/08 05:53:56;;;;;;;2.42;1.35;;;17.60;91.00;;;;;;5016070;28;20035;-59
2023/05/08 05:56:22;;;;;;;1.33;0.70;;;17.60;91.00;;;;;;5000389;28;20031;-60
2023/05/08 05:58:47;;;;;;;6.90;1.25;;;17.60;91.00;;;;;;4984023;28;20066;-59
2023/05/08 06:01:13;;;;;;;5.72;1.30;;;17.60;91.20;;;;;;4985751;28;20413;-59
2023/05/08 06:03:38;;;;;;;10.95;1.25;;;17.60;91.40;;;;;;4968682;28;20035;-60
2023/05/08 06:06:04;;;;;;;3.15;1.25;;;17.60;91.30;;;;;;4984971;28;20062;-59
2023/05/08 06:08:30;;;;;;;2.90;1.10;;;17.60;91.30;;;;;;4985398;28;20033;-59
2023/05/08 06:10:55;;;;;;;3.83;1.60;;;17.60;91.40;;;;;;4968903;28;20039;-60
2023/05/08 06:13:21;;;;;;;4.07;1.25;;;17.60;91.40;;;;;;4984769;28;20050;-60
2023/05/08 06:15:46;;;;;;;3.22;1.25;;;17.60;91.40;;;;;;4984788;28;20073;-59
2023/05/08 06:18:12;;;;;;;4.28;0.95;;;17.60;91.50;;;;;;4983186;28;20034;-60
2023/05/08 06:20:38;;;;;;;3.45;0.90;;;17.60;91.50;;;;;;4985406;28;20131;-59
2023/05/08 06:23:04;;;;;;;1.55;0.75;;;17.60;91.60;;;;;;4984796;28;20023;-60
2023/05/08 06:25:29;;;;;;;1.08;0.70;;;17.60;91.60;;;;;;4984515;28;20035;-59
2023/05/08 06:27:55;;;;;;;3.60;1.02;;;17.60;91.70;;;;;;4986314;28;20042;-60
2023/05/08 06:30:21;;;;;;;1.98;0.95;;;17.60;91.70;;;;;;4964808;28;20039;-60
2023/05/08 06:32:46;;;;;;;2.75;1.00;;;17.60;91.70;;;;;;4979377;28;20035;-60
2023/05/08 06:35:14;;;;;;;3.40;0.90;;;17.60;91.80;;;;;;4968559;28;20046;-60
2023/05/08 06:37:39;;;;;;;4.50;1.00;;;17.60;91.80;;;;;;4984148;28;20444;-60
2023/05/08 06:40:05;;;;;;;6.53;1.30;;;17.60;91.80;;;;;;4984301;28;20035;-60
2023/05/08 06:42:31;;;;;;;5.95;1.20;;;17.60;91.80;;;;;;4985297;28;20027;-59
2023/05/08 06:44:56;;;;;;;12.70;1.35;;;17.70;91.90;;;;;;4986261;28;20364;-60
2023/05/08 06:47:22;;;;;;;5.22;1.48;;;17.70;91.90;;;;;;4983656;28;20035;-60
2023/05/08 06:49:47;;;;;;;8.40;1.48;;;17.60;91.90;;;;;;4984352;28;20110;-60
2023/05/08 06:52:13;;;;;;;11.13;1.85;;;17.70;91.90;;;;;;4983786;28;20031;-60
2023/05/08 06:54:40;;;;;;;18.00;1.98;;;17.60;91.90;;;;;;4985323;28;20054;-60
2023/05/08 06:57:06;;;;;;;10.35;1.85;;;17.70;91.90;;;;;;4986077;28;20038;-59
2023/05/08 06:59:32;;;;;;;11.75;2.10;;;17.70;92.00;;;;;;4982913;28;20046;-59
2023/05/08 07:01:58;;;;;;;6.88;1.95;;;17.70;92.00;;;;;;4984083;28;20038;-60
2023/05/08 07:04:23;;;;;;;11.63;1.52;;;17.70;92.00;;;;;;4968423;28;20050;-59
2023/05/08 07:06:49;;;;;;;9.90;1.60;;;17.70;92.00;;;;;;4999577;28;20031;-59
2023/05/08 07:09:15;;;;;;;5.60;1.52;;;17.70;92.00;;;;;;4984054;28;20054;-60
2023/05/08 07:11:41;;;;;;;5.25;1.38;;;17.70;92.00;;;;;;4985541;28;20146;-60
2023/05/08 07:14:06;;;;;;;9.38;1.73;;;17.70;92.00;;;;;;4991952;28;20067;-60
2023/05/08 07:16:32;;;;;;;19.70;3.47;;;17.70;92.00;;;;;;4990536;28;20042;-59
2023/05/08 07:18:58;;;;;;;28.40;3.75;;;17.70;92.00;;;;;;4986029;28;20115;-60
2023/05/08 07:21:23;;;;;;;23.77;3.42;;;17.70;92.00;;;;;;4983550;28;20126;-60
2023/05/08 07:23:50;;;;;;;10.02;2.50;;;17.70;92.00;;;;;;4999363;28;20038;-60
2023/05/08 07:26:16;;;;;;;25.23;3.38;;;17.80;92.00;;;;;;4980135;28;20424;-59
2023/05/08 07:28:41;;;;;;;22.17;3.40;;;17.80;92.00;;;;;;4985125;28;20031;-59
2023/05/08 07:31:07;;;;;;;36.85;4.72;;;17.80;92.10;;;;;;4992822;28;20027;-59
2023/05/08 07:33:33;;;;;;;20.60;3.72;;;17.80;92.10;;;;;;4994186;28;20038;-60
2023/05/08 07:35:59;;;;;;;44.95;5.25;;;17.80;92.00;;;;;;4986071;28;20530;-60
2023/05/08 07:38:25;;;;;;;60.08;7.03;;;17.80;92.00;;;;;;5000876;28;20390;-60
2023/05/08 07:40:53;;;;;;;90.10;10.30;;;17.90;92.10;;;;;;4983755;28;21101;-59
2023/05/08 07:43:18;;;;;;;32.28;5.22;;;17.90;92.10;;;;;;4987929;28;20042;-60
2023/05/08 07:45:44;;;;;;;41.65;5.45;;;17.90;92.00;;;;;;4987733;28;20034;-60
2023/05/08 07:48:10;;;;;;;36.67;4.72;;;17.90;91.90;;;;;;4983309;28;20065;-60
2023/05/08 07:50:36;;;;;;;32.30;4.63;;;17.90;92.00;;;;;;4983322;28;20030;-59
2023/05/08 07:53:01;;;;;;;30.75;4.50;;;17.90;92.00;;;;;;4968031;28;20430;-60
2023/05/08 07:55:27;;;;;;;29.20;4.43;;;18.00;92.00;;;;;;4985107;28;20030;-59
2023/05/08 07:57:52;;;;;;;22.40;4.07;;;18.00;92.00;;;;;;4996665;28;20027;-60
2023/05/08 08:00:18;;;;;;;33.78;4.90;;;18.00;91.90;;;;;;4995703;28;20057;-59
2023/05/08 08:02:44;;;;;;;25.83;5.18;;;18.00;91.90;;;;;;4991357;28;20047;-60
2023/05/08 08:05:10;;;;;;;31.50;5.10;;;18.00;92.00;;;;;;5007295;28;20027;-59
2023/05/08 08:07:36;;;;;;;41.00;5.13;;;18.00;92.00;;;;;;4939495;28;20027;-60
2023/05/08 08:10:03;;;;;;;25.60;4.00;;;18.10;92.10;;;;;;4991301;28;20031;-60
2023/05/08 08:12:29;;;;;;;49.45;5.95;;;18.10;92.00;;;;;;4977357;28;20187;-59
2023/05/08 08:14:55;;;;;;;49.55;6.00;;;18.10;92.00;;;;;;4982066;28;20134;-59
2023/05/08 08:17:21;;;;;;;34.95;5.82;;;18.20;92.20;;;;;;4989740;28;20425;-60
2023/05/08 08:19:46;;;;;;;219.80;23.08;;;18.20;92.30;;;;;;4981521;28;20042;-60
2023/05/08 08:22:12;;;;;;;89.38;10.52;;;18.20;92.40;;;;;;4968930;28;20122;-60
2023/05/08 08:24:37;;;;;;;54.13;8.07;;;18.20;92.50;;;;;;4983303;28;20047;-59
2023/05/08 08:27:03;;;;;;;106.05;11.02;;;18.30;92.50;;;;;;4986309;28;20018;-60
2023/05/08 08:29:29;;;;;;;46.88;5.82;;;18.30;92.30;;;;;;4983831;28;20347;-59
2023/05/08 08:31:55;;;;;;;54.38;6.25;;;18.30;92.00;;;;;;4987316;28;20030;-60
2023/05/08 08:34:20;;;;;;;39.42;5.45;;;18.40;92.00;;;;;;4987915;28;20518;-60
2023/05/08 08:36:46;;;;;;;34.15;5.38;;;18.40;92.00;;;;;;4967602;28;20142;-60
2023/05/08 08:39:11;;;;;;;52.45;6.28;;;18.40;91.90;;;;;;4984241;28;20033;-60
2023/05/08 08:41:38;;;;;;;48.97;6.63;;;18.40;91.90;;;;;;4980101;28;20069;-60
2023/05/08 08:44:04;;;;;;;75.05;9.13;;;18.50;92.10;;;;;;4984722;28;20124;-59
2023/05/08 08:46:29;;;;;;;46.33;6.25;;;18.60;92.30;;;;;;4983777;28;20031;-60
2023/05/08 08:48:55;;;;;;;53.92;6.88;;;18.60;92.30;;;;;;4985997;28;20134;-60
2023/05/08 08:51:27;;;;;;;64.47;8.15;;;18.70;92.20;;;;;;4985028;28;20171;-59
2023/05/08 08:54:07;;;;;;;46.50;6.80;;;18.70;92.10;;;;;;4986678;28;20030;-60
2023/05/08 08:56:32;;;;;;;75.95;8.35;;;18.80;92.30;;;;;;4983832;28;20031;-59
2023/05/08 08:58:58;;;;;;;83.18;9.63;;;18.80;92.40;;;;;;4988954;28;20073;-59
2023/05/08 09:01:24;;;;;;;109.95;11.60;;;18.80;92.20;;;;;;4979040;28;20034;-59
2023/05/08 09:03:50;;;;;;;86.35;10.05;;;18.90;92.40;;;;;;4981918;28;20054;-59
2023/05/08 09:06:16;;;;;;;100.80;10.80;;;18.90;92.30;;;;;;4971521;28;20035;-59
2023/05/08 09:08:41;;;;;;;107.20;12.45;;;19.00;92.30;;;;;;4974436;28;20043;-60
2023/05/08 09:11:07;;;;;;;107.05;11.98;;;19.00;92.30;;;;;;4981872;28;20027;-59
2023/05/08 09:13:32;;;;;;;75.93;9.50;;;19.00;92.10;;;;;;4984600;28;20042;-59
2023/05/08 09:15:58;;;;;;;63.58;8.27;;;19.10;92.30;;;;;;4984268;28;20371;-59
2023/05/08 09:18:24;;;;;;;61.83;8.55;;;19.10;92.10;;;;;;4978513;28;20031;-60
2023/05/08 09:20:50;;;;;;;84.57;8.80;;;19.10;92.20;;;;;;4981010;28;20035;-60
2023/05/08 09:23:16;;;;;;;79.10;9.05;;;19.20;92.10;;;;;;4983781;28;20029;-59
2023/05/08 09:25:46;;;;;;;111.50;11.48;;;19.20;92.00;;;;;;4983118;28;20483;-59
2023/05/08 09:28:18;;;;;;;123.88;12.25;;;19.20;92.20;;;;;;4983968;28;20027;-60
2023/05/08 09:30:50;;;;;;;100.93;11.00;;;19.30;92.20;;;;;;4967725;28;20035;-60
2023/05/08 09:33:16;;;;;;;116.80;13.80;;;19.30;92.40;;;;;;4981218;28;20043;-59
2023/05/08 09:35:41;;;;;;;147.70;14.57;;;19.40;92.20;;;;;;4982793;28;20035;-53
2023/05/08 09:38:07;;;;;;;117.55;14.10;;;19.40;92.00;;;;;;4988040;28;20029;-54
2023/05/08 09:40:33;;;;;;;111.18;12.43;;;19.40;92.00;;;;;;4986658;28;20038;-54
2023/05/08 09:42:59;;;;;;;157.57;13.98;;;19.50;92.00;;;;;;4983370;28;20035;-55
2023/05/08 09:45:30;;;;;;;113.43;13.38;;;19.50;92.30;;;;;;4979399;28;20103;-54
2023/05/08 09:47:55;;;;;;;85.38;11.10;;;19.50;92.30;;;;;;4972751;28;20023;-54
2023/05/08 09:50:21;;;;;;;134.25;14.38;;;19.60;92.40;;;;;;4979759;28;20033;-54
2023/05/08 09:52:47;;;;;;;116.50;13.80;;;19.70;92.50;;;;;;4956113;28;20041;-54
2023/05/08 09:55:13;;;;;;;165.55;19.40;;;19.70;92.50;;;;;;5000027;28;20027;-54
2023/05/08 09:57:49;;;;;;;120.07;14.38;;;19.70;92.60;;;;;;4979487;28;20153;-52
2023/05/08 10:00:15;;;;;;;85.93;10.52;;;19.80;92.60;;;;;;4975851;28;20035;-54
2023/05/08 10:02:53;;;;;;;62.63;7.78;;;19.80;92.60;;;;;;4983109;28;20502;-55
2023/05/08 10:05:30;;;;;;;79.68;11.15;;;19.80;92.30;;;;;;4978369;28;20463;-55
2023/05/08 10:07:56;;;;;;;102.72;12.23;;;19.80;92.20;;;;;;4981192;28;20030;-54
2023/05/08 10:10:29;;;;;;;153.45;14.70;;;19.90;92.30;;;;;;4990141;28;20093;-52
2023/05/08 10:12:55;;;;;;;106.05;11.70;;;19.90;92.40;;;;;;4985044;28;20023;-54
2023/05/08 10:15:23;;;;;;;120.68;15.18;;;20.00;92.50;;;;;;4981747;28;20443;-54
2023/05/08 10:17:54;;;;;;;193.68;25.17;;;20.00;92.50;;;;;;4958395;28;20046;-54
2023/05/08 10:20:20;;;;;;;201.40;20.85;;;20.00;92.60;;;;;;4979852;28;20190;-54
2023/05/08 10:22:46;;;;;;;186.32;18.45;;;20.10;92.60;;;;;;4962939;28;20054;-54
2023/05/08 10:25:15;;;;;;;100.30;14.07;;;20.10;92.70;;;;;;4976328;28;20062;-54
2023/05/08 10:27:46;;;;;;;146.30;16.17;;;20.20;92.70;;;;;;4979117;28;20027;-54
2023/05/08 10:30:13;;;;;;;138.27;17.88;;;20.20;92.60;;;;;;4970609;28;20058;-54
2023/05/08 10:32:44;;;;;;;137.30;18.42;;;20.30;92.30;;;;;;4979675;28;20031;-54
2023/05/08 10:35:10;;;;;;;126.20;16.98;;;20.30;92.30;;;;;;4983352;28;20046;-54
2023/05/08 10:37:37;;;;;;;136.57;18.67;;;20.30;92.20;;;;;;4982599;28;20026;-54
2023/05/08 10:40:04;;;;;;;152.68;17.95;;;20.40;92.30;;;;;;4983882;28;20039;-54
2023/05/08 10:42:29;;;;;;;135.60;18.92;;;20.40;92.20;;;;;;4984871;28;20026;-54
2023/05/08 10:44:55;;;;;;;164.68;21.17;;;20.40;92.10;;;;;;4978390;28;20069;-54
2023/05/08 10:47:40;;;;;;;129.82;17.73;;;20.50;92.00;;;;;;4979826;28;20117;-54
2023/05/08 10:50:14;;;;;;;149.82;17.15;;;20.50;91.90;;;;;;4975619;28;20035;-54
2023/05/08 10:53:10;;;;;;;89.97;14.30;;;20.50;91.90;;;;;;4995146;28;20027;-54
2023/05/08 10:55:36;;;;;;;262.83;30.10;;;20.60;91.70;;;;;;4971099;28;20046;-54
2023/05/08 10:58:03;;;;;;;152.68;18.17;;;20.60;91.70;;;;;;4980302;28;20175;-54
2023/05/08 11:00:52;;;;;;;117.03;15.07;;;20.70;91.70;;;;;;4961781;28;20346;-55
2023/05/08 11:03:19;;;;;;;398.23;39.00;;;20.70;91.60;;;;;;4966736;28;20026;-54
2023/05/08 11:05:50;;;;;;;157.20;19.13;;;20.80;91.50;;;;;;4982702;28;20042;-54
2023/05/08 11:08:21;;;;;;;133.45;17.05;;;20.80;91.40;;;;;;4982713;28;20031;-54
2023/05/08 11:11:02;;;;;;;93.07;13.15;;;20.80;91.20;;;;;;4985184;28;20491;-54
2023/05/08 11:13:37;;;;;;;102.15;13.20;;;20.90;91.20;;;;;;4991859;28;20058;-54
2023/05/08 11:16:03;;;;;;;118.78;14.32;;;21.00;91.10;;;;;;4983701;28;20364;-54
2023/05/08 11:18:28;;;;;;;104.72;15.10;;;21.00;90.80;;;;;;4984757;28;20130;-54
2023/05/08 11:21:02;;;;;;;69.30;12.20;;;21.00;90.70;;;;;;4986063;28;20077;-54
2023/05/08 11:23:32;;;;;;;103.43;13.25;;;21.10;90.70;;;;;;4983603;28;20030;-54
2023/05/08 11:26:04;;;;;;;103.47;11.13;;;21.20;90.60;;;;;;4981744;28;20053;-54
2023/05/08 11:28:31;;;;;;;86.28;12.32;;;21.20;90.50;;;;;;4982689;28;20022;-54
2023/05/08 11:30:58;;;;;;;68.70;10.93;;;21.30;90.40;;;;;;4986445;28;20037;-50
2023/05/08 11:33:31;;;;;;;88.85;11.10;;;21.30;90.30;;;;;;4980797;28;20421;-59
2023/05/08 11:35:58;;;;;;;80.00;10.93;;;21.40;90.30;;;;;;4984517;28;20264;-59
2023/05/08 11:38:34;;;;;;;94.80;11.43;;;21.40;90.10;;;;;;4986574;28;20035;-59
2023/05/08 11:41:24;;;;;;;87.97;12.00;;;21.50;90.20;;;;;;4984969;28;20268;-59
2023/05/08 11:44:07;;;;;;;88.35;12.98;;;21.50;90.00;;;;;;4988853;28;20089;-59
2023/05/08 11:46:41;;;;;;;107.38;13.95;;;21.60;90.00;;;;;;4987043;28;20471;-59
2023/05/08 11:49:15;;;;;;;110.10;14.82;;;21.60;89.90;;;;;;4978332;28;20039;-59
2023/05/08 11:51:43;;;;;;;78.43;10.90;;;21.70;89.80;;;;;;4985181;28;20035;-59
2023/05/08 11:54:13;;;;;;;78.13;11.25;;;21.70;89.70;;;;;;4980595;28;20030;-59
2023/05/08 11:56:38;;;;;;;62.60;8.68;;;21.70;89.50;;;;;;4983318;28;20062;-60
2023/05/08 11:59:04;;;;;;;63.92;9.73;;;21.80;89.70;;;;;;4979930;28;20038;-59
2023/05/08 12:01:31;;;;;;;62.55;8.93;;;21.80;89.20;;;;;;4984619;28;20080;-60
2023/05/08 12:04:06;;;;;;;58.75;8.73;;;21.80;89.00;;;;;;4979519;28;20019;-59
2023/05/08 12:06:32;;;;;;;62.63;8.70;;;21.90;89.20;;;;;;4986567;28;20110;-59
2023/05/08 12:08:59;;;;;;;56.08;8.68;;;22.00;89.00;;;;;;4981883;28;20510;-59
2023/05/08 12:11:25;;;;;;;51.58;8.98;;;21.90;88.70;;;;;;4988760;28;20030;-59
2023/05/08 12:13:51;;;;;;;82.07;10.82;;;22.00;88.50;;;;;;4990971;28;20506;-59
2023/05/08 12:16:16;;;;;;;69.43;9.95;;;22.00;88.10;;;;;;4970394;28;20051;-59
2023/05/08 12:18:42;;;;;;;52.53;8.80;;;22.10;88.00;;;;;;4987215;28;20035;-58
2023/05/08 12:21:09;;;;;;;60.08;8.43;;;22.10;88.00;;;;;;4984057;28;20054;-59
2023/05/08 12:23:34;;;;;;;62.92;9.15;;;22.00;87.80;;;;;;4990957;28;20440;-59
2023/05/08 12:26:00;;;;;;;64.53;9.68;;;22.30;87.60;;;;;;4977054;28;20041;-59
2023/05/08 12:28:26;;;;;;;63.90;9.13;;;22.30;87.20;;;;;;4995162;28;20559;-59
2023/05/08 12:30:52;;;;;;;67.32;10.00;;;22.40;87.10;;;;;;5009132;28;20528;-59
2023/05/08 12:33:17;;;;;;;66.28;9.77;;;22.50;86.80;;;;;;4966375;28;20034;-60
2023/05/08 12:35:43;;;;;;;55.38;8.32;;;22.60;86.50;;;;;;4991214;28;20186;-59
2023/05/08 12:38:10;;;;;;;81.85;11.70;;;22.60;86.50;;;;;;4986130;28;20039;-59
2023/05/08 12:40:47;;;;;;;63.55;10.38;;;22.70;86.50;;;;;;4980780;28;20051;-59
2023/05/08 12:43:13;;;;;;;71.40;9.73;;;22.70;86.40;;;;;;4985020;28;20027;-59
2023/05/08 12:45:40;;;;;;;92.32;11.35;;;22.70;86.50;;;;;;4988676;28;20090;-59